Time;durP1;ratioP1;P1;durP2;ratioP2;P2;SDS_P1;SDS_P2;PMS_P1;PMS_P2;Temp;Humidity;BMP_temperature;BMP_pressure;BME280_temperature;BME280_humidity;BME280_pressure;Samples;Min_cycle;Max_cycle;Signal;HPM_P1;HPM_P2
2022/05/15 00:01:38;;;;;;;7.50;2.70;;;;;;;9.42;73.11;98770.67;104896;1271;75351;-27
2022/05/15 00:04:07;;;;;;;6.90;2.60;;;;;;;9.38;72.88;98769.41;104937;1271;61969;-27
2022/05/15 00:06:37;;;;;;;6.20;3.10;;;;;;;9.15;73.45;98771.80;104965;1271;61793;-27
2022/05/15 00:09:05;;;;;;;10.90;3.80;;;;;;;8.88;74.27;98772.19;104941;1270;73737;-27
2022/05/15 00:11:35;;;;;;;5.80;3.30;;;;;;;8.60;75.48;98770.03;104805;1271;76184;-27
2022/05/15 00:14:05;;;;;;;5.80;3.10;;;;;;;8.38;76.41;98767.84;104903;1270;74688;-27
2022/05/15 00:16:35;;;;;;;5.80;2.50;;;;;;;8.20;77.25;98766.91;104742;1271;62517;-27
2022/05/15 00:19:04;;;;;;;4.70;2.50;;;;;;;8.67;76.14;98768.40;104936;1271;61257;-27
2022/05/15 00:21:35;;;;;;;4.80;3.10;;;;;;;9.18;74.11;98767.23;104735;1271;76487;-27
2022/05/15 00:24:05;;;;;;;5.80;2.90;;;;;;;9.22;73.41;98769.16;105022;1271;76359;-27
2022/05/15 00:26:33;;;;;;;6.70;3.20;;;;;;;9.01;73.81;98764.42;105073;1271;74240;-27
2022/05/15 00:29:04;;;;;;;6.50;3.70;;;;;;;8.72;74.97;98765.11;104514;1271;378229;-27
2022/05/15 00:31:33;;;;;;;7.30;3.10;;;;;;;8.45;75.95;98761.44;104905;1271;61039;-27
2022/05/15 00:34:02;;;;;;;11.10;3.80;;;;;;;8.22;76.94;98762.70;105046;1271;75947;-27
2022/05/15 00:36:32;;;;;;;8.40;2.70;;;;;;;8.04;77.74;98757.45;104949;1271;74982;-27
2022/05/15 00:39:00;;;;;;;4.90;2.50;;;;;;;8.50;76.79;98761.06;104925;1271;74812;-27
2022/05/15 00:41:29;;;;;;;7.60;2.80;;;;;;;8.99;74.54;98761.80;104917;1271;61867;-27
2022/05/15 00:43:58;;;;;;;7.30;3.20;;;;;;;9.01;73.95;98761.83;105074;1271;61109;-27
2022/05/15 00:46:36;;;;;;;7.60;2.90;;;;;;;8.81;74.57;98762.61;105174;1271;74567;-27
2022/05/15 00:49:08;;;;;;;6.10;3.30;;;;;;;8.53;75.63;98764.46;105147;1271;73970;-27
2022/05/15 00:51:44;;;;;;;7.20;3.50;;;;;;;8.29;76.45;98764.35;105114;1271;73453;-27
2022/05/15 00:54:13;;;;;;;5.00;3.20;;;;;;;8.05;77.43;98762.23;104763;1271;61869;-27
2022/05/15 00:56:46;;;;;;;4.00;2.30;;;;;;;7.88;78.20;98764.70;105148;1271;61332;-27
2022/05/15 00:59:16;;;;;;;11.00;2.80;;;;;;;8.35;77.27;98760.67;104868;1271;75254;-27
2022/05/15 01:01:44;;;;;;;8.80;3.20;;;;;;;8.83;75.22;98763.38;104636;1271;76334;-27
2022/05/15 01:04:13;;;;;;;6.90;3.40;;;;;;;8.86;74.38;98758.67;104846;1271;74404;-27
2022/05/15 01:06:43;;;;;;;5.30;2.70;;;;;;;8.63;75.05;98757.99;104901;1271;61102;-27
2022/05/15 01:09:14;;;;;;;9.30;3.10;;;;;;;8.36;75.89;98757.81;104773;1271;61183;-27
2022/05/15 01:11:44;;;;;;;9.00;4.20;;;;;;;8.09;76.71;98755.49;104782;1271;74549;-27
2022/05/15 01:14:13;;;;;;;7.80;3.30;;;;;;;7.82;77.54;98755.77;104707;1271;75772;-27
2022/05/15 01:16:41;;;;;;;5.00;2.60;;;;;;;7.66;78.10;98757.48;104680;1271;74731;-27
2022/05/15 01:19:10;;;;;;;4.80;2.50;;;;;;;8.09;77.67;98754.13;104769;1271;63625;-27
2022/05/15 01:21:55;;;;;;;5.20;3.80;;;;;;;8.65;75.37;98754.25;104905;1271;61051;-27
2022/05/15 01:24:25;;;;;;;4.50;2.90;;;;;;;8.66;74.70;98756.77;104760;1272;75370;-27
2022/05/15 01:26:55;;;;;;;10.80;3.20;;;;;;;8.45;75.06;98758.67;104780;1271;76157;-27
2022/05/15 01:29:31;;;;;;;4.70;3.00;;;;;;;8.19;76.06;98759.63;104658;1271;73410;-27
2022/05/15 01:32:02;;;;;;;7.70;3.40;;;;;;;7.91;76.98;98757.02;104752;1271;61144;-27
2022/05/15 01:34:32;;;;;;;5.20;2.60;;;;;;;7.68;78.43;98756.48;104687;1271;61074;-27
2022/05/15 01:37:01;;;;;;;5.80;2.50;;;;;;;8.10;77.93;98752.48;104945;1271;75067;-27
2022/05/15 01:39:31;;;;;;;6.20;2.40;;;;;;;8.62;75.80;98747.02;104824;1271;76577;-27
2022/05/15 01:42:00;;;;;;;4.80;3.50;;;;;;;8.64;75.36;98746.45;105069;1271;74212;-27
2022/05/15 01:44:30;;;;;;;6.70;3.10;;;;;;;8.49;75.95;98742.28;104863;1271;62057;-27
2022/05/15 01:46:59;;;;;;;7.30;3.40;;;;;;;8.29;76.91;98738.41;104784;1271;62077;-27
2022/05/15 01:49:28;;;;;;;5.20;2.90;;;;;;;8.14;77.74;98739.40;105016;1272;74260;-27
2022/05/15 01:51:57;;;;;;;7.30;2.40;;;;;;;8.04;78.13;98737.01;104953;1271;76303;-27
2022/05/15 01:55:58;;;;;;;6.30;3.00;;;;;;;8.87;76.08;98737.39;101791;1309;600970;-25
2022/05/15 01:58:27;;;;;;;5.10;2.80;;;;;;;9.15;74.61;98738.18;104249;1286;62086;-27
2022/05/15 02:00:56;;;;;;;5.30;2.90;;;;;;;9.05;74.62;98737.52;104290;1287;61046;-27
2022/05/15 02:03:26;;;;;;;4.30;3.00;;;;;;;8.84;75.31;98734.41;104265;1286;73943;-27
2022/05/15 02:05:55;;;;;;;5.60;3.40;;;;;;;8.61;76.56;98742.38;103945;1286;76033;-27
2022/05/15 02:08:24;;;;;;;6.80;3.40;;;;;;;8.40;77.64;98738.23;104271;1285;74286;-27
2022/05/15 02:10:54;;;;;;;6.10;2.30;;;;;;;8.28;78.56;98738.15;104120;1284;61216;-27
2022/05/15 02:13:22;;;;;;;6.50;3.40;;;;;;;8.82;77.22;98743.41;104497;1283;61793;-27
2022/05/15 02:15:52;;;;;;;4.30;2.80;;;;;;;9.33;74.91;98741.38;104408;1284;73728;-27
2022/05/15 02:18:21;;;;;;;8.00;3.00;;;;;;;9.45;74.43;98738.94;104298;1284;76081;-27
2022/05/15 02:20:50;;;;;;;9.80;3.50;;;;;;;9.27;74.61;98738.91;104271;1284;74546;-27
2022/05/15 02:23:19;;;;;;;4.20;3.00;;;;;;;9.05;75.24;98732.73;104290;1280;62560;-27
2022/05/15 02:25:48;;;;;;;9.60;3.90;;;;;;;8.89;75.99;98733.80;104239;1279;61948;-27
2022/05/15 02:28:17;;;;;;;4.50;2.30;;;;;;;8.73;76.99;98733.68;104444;1280;75042;-27
2022/05/15 02:30:49;;;;;;;6.30;3.30;;;;;;;9.16;76.03;98735.17;104376;1280;76291;-27
2022/05/15 02:33:18;;;;;;;4.10;3.10;;;;;;;9.61;74.01;98736.90;104465;1280;73486;-27
2022/05/15 02:35:47;;;;;;;10.50;3.40;;;;;;;9.60;73.98;98738.05;104648;1279;62376;-27
2022/05/15 02:38:16;;;;;;;6.50;3.30;;;;;;;9.44;74.10;98736.88;104539;1280;61850;-27
2022/05/15 02:40:45;;;;;;;12.50;3.30;;;;;;;9.22;74.83;98737.41;104550;1280;74814;-27
2022/05/15 02:43:14;;;;;;;6.10;3.10;;;;;;;9.06;75.40;98736.84;104568;1280;76152;-27
2022/05/15 02:45:43;;;;;;;3.60;2.30;;;;;;;8.86;76.47;98741.80;104435;1280;73470;-27
2022/05/15 02:51:06;;;;;;;5.50;3.90;;;;;;;9.76;73.10;98747.82;104603;1277;62219;-27
2022/05/15 02:53:38;;;;;;;4.80;2.60;;;;;;;9.73;72.62;98745.45;104690;1276;73963;-27
2022/05/15 02:56:10;;;;;;;5.00;3.90;;;;;;;9.45;73.41;98746.47;104439;1277;76215;-27
2022/05/15 02:58:39;;;;;;;5.30;3.00;;;;;;;9.22;74.23;98747.47;104439;1275;74213;-27
2022/05/15 03:01:08;;;;;;;7.50;3.60;;;;;;;9.03;74.97;98747.24;104599;1277;61145;-26
2022/05/15 03:03:37;;;;;;;4.80;2.20;;;;;;;8.91;75.73;98751.83;104522;1277;61077;-27
2022/05/15 03:06:07;;;;;;;5.30;2.60;;;;;;;9.36;74.46;98747.41;104615;1277;74742;-26
2022/05/15 03:08:38;;;;;;;7.20;3.10;;;;;;;9.87;72.13;98748.14;104635;1276;75085;-26
2022/05/15 03:11:07;;;;;;;6.40;3.20;;;;;;;9.90;71.79;98752.34;104553;1278;74710;-26
2022/05/15 03:13:36;;;;;;;3.80;2.70;;;;;;;9.72;72.18;98754.38;104648;1277;61147;-26
2022/05/15 03:16:06;;;;;;;9.00;3.60;;;;;;;9.41;73.13;98752.54;104588;1277;61033;-26
2022/05/15 03:18:39;;;;;;;6.50;3.10;;;;;;;9.12;74.24;98754.19;104479;1277;74733;-26
2022/05/15 03:21:08;;;;;;;5.20;3.70;;;;;;;8.87;75.37;98754.42;104489;1277;74797;-26
2022/05/15 03:23:38;;;;;;;4.80;2.00;;;;;;;8.78;75.92;98752.89;104537;1277;73262;-26
2022/05/15 03:26:08;;;;;;;6.70;2.60;;;;;;;9.23;75.05;98756.78;104530;1276;61282;-26
2022/05/15 03:28:37;;;;;;;6.40;2.70;;;;;;;9.68;72.96;98764.96;104641;1277;61635;-26
2022/05/15 03:31:06;;;;;;;5.70;3.00;;;;;;;9.61;72.70;98755.23;104650;1276;74691;-26
2022/05/15 03:33:36;;;;;;;5.10;3.10;;;;;;;9.40;73.15;98757.15;104585;1277;76022;-25
2022/05/15 03:36:10;;;;;;;9.70;3.30;;;;;;;9.16;73.96;98756.42;104637;1275;74446;-25
2022/05/15 03:38:40;;;;;;;5.20;3.40;;;;;;;8.95;74.78;98755.34;104687;1277;61813;-25
2022/05/15 03:41:09;;;;;;;8.00;3.30;;;;;;;8.81;75.38;98756.81;104605;1278;62651;-26
2022/05/15 03:43:38;;;;;;;8.40;2.40;;;;;;;8.68;76.44;98755.41;104653;1277;74782;-25
2022/05/15 03:46:08;;;;;;;8.00;2.70;;;;;;;9.15;75.41;98760.53;104599;1277;75065;-25
2022/05/15 03:48:36;;;;;;;2.90;2.50;;;;;;;9.63;73.46;98759.95;104699;1274;74503;-25
2022/05/15 03:51:05;;;;;;;5.70;2.90;;;;;;;9.64;72.86;98759.38;104742;1274;61170;-25
2022/05/15 03:53:34;;;;;;;5.50;2.40;;;;;;;9.50;73.38;98756.84;104705;1274;61870;-25
2022/05/15 03:56:04;;;;;;;5.00;3.00;;;;;;;9.32;74.00;98757.07;104630;1277;75027;-25
2022/05/15 03:58:35;;;;;;;4.80;3.20;;;;;;;9.19;74.50;98750.48;104369;1275;76114;-25
2022/05/15 04:01:04;;;;;;;5.80;3.20;;;;;;;9.07;74.96;98751.76;104421;1277;72640;-25
2022/05/15 04:03:34;;;;;;;4.20;1.80;;;;;;;9.06;75.89;98756.23;104556;1274;64007;-25
2022/05/15 04:06:03;;;;;;;3.60;2.10;;;;;;;9.85;73.86;98757.98;104776;1274;61151;-25
2022/05/15 04:08:33;;;;;;;6.10;2.60;;;;;;;10.64;71.08;98760.06;104683;1277;74756;-25
2022/05/15 04:11:02;;;;;;;5.60;3.00;;;;;;;11.00;69.83;98762.51;104724;1275;75845;-25
2022/05/15 04:13:31;;;;;;;5.80;2.90;;;;;;;11.08;69.62;98760.25;104727;1275;74189;-25
2022/05/15 04:16:01;;;;;;;7.00;3.00;;;;;;;11.13;69.21;98755.42;104715;1274;61080;-25
2022/05/15 04:18:29;;;;;;;7.40;2.80;;;;;;;11.09;69.42;98753.42;104738;1277;61813;-25
2022/05/15 04:20:58;;;;;;;8.30;3.70;;;;;;;11.10;69.77;98757.48;104726;1274;74599;-26
2022/05/15 04:23:28;;;;;;;3.90;2.00;;;;;;;11.12;70.33;98754.50;104681;1278;75957;-25
2022/05/15 04:25:57;;;;;;;5.80;2.60;;;;;;;11.70;68.62;98752.54;104721;1275;74605;-25
2022/05/15 04:28:26;;;;;;;5.80;2.80;;;;;;;12.27;67.09;98748.08;104721;1275;61242;-25
2022/05/15 04:30:55;;;;;;;3.60;2.60;;;;;;;12.34;66.07;98751.08;104694;1275;61401;-25
2022/05/15 04:33:24;;;;;;;6.30;2.70;;;;;;;12.35;66.07;98751.15;104716;1277;74674;-25
2022/05/15 04:35:53;;;;;;;6.80;3.00;;;;;;;12.27;66.59;98752.73;104603;1274;75826;-25
2022/05/15 04:38:22;;;;;;;7.50;3.60;;;;;;;12.08;66.69;98755.55;104602;1276;74186;-25
2022/05/15 04:40:52;;;;;;;6.90;3.20;;;;;;;11.92;67.85;98761.49;104682;1277;62042;-25
2022/05/15 04:43:21;;;;;;;6.60;3.20;;;;;;;11.83;68.38;98761.80;104593;1278;61139;-25
2022/05/15 04:45:50;;;;;;;9.70;3.60;;;;;;;11.77;68.87;98763.20;104604;1275;74840;-26
2022/05/15 04:48:19;;;;;;;7.30;2.90;;;;;;;11.87;68.46;98759.30;104694;1274;75925;-25
2022/05/15 04:50:48;;;;;;;4.60;3.20;;;;;;;12.21;66.26;98757.66;104726;1274;74446;-25
2022/05/15 04:53:23;;;;;;;8.80;2.80;;;;;;;12.41;65.82;98761.05;104729;1274;62131;-25
2022/05/15 04:55:52;;;;;;;6.00;2.70;;;;;;;12.59;65.75;98764.77;104655;1275;61084;-25
2022/05/15 04:58:21;;;;;;;10.40;3.60;;;;;;;12.63;65.12;98758.09;104749;1274;73692;-26
2022/05/15 05:00:50;;;;;;;12.30;3.20;;;;;;;12.65;66.24;98758.80;104480;1277;74811;-26
2022/05/15 05:03:19;;;;;;;8.60;3.70;;;;;;;12.75;66.33;98757.70;104646;1274;74278;-25
2022/05/15 05:05:48;;;;;;;7.20;3.70;;;;;;;12.80;64.52;98751.41;104699;1274;61137;-26
2022/05/15 05:08:17;;;;;;;10.00;4.30;;;;;;;12.66;65.21;98747.52;104720;1275;62117;-25
2022/05/15 05:10:46;;;;;;;6.80;3.30;;;;;;;12.67;65.94;98751.80;104628;1278;74622;-26
2022/05/15 05:13:16;;;;;;;9.00;4.10;;;;;;;12.77;65.78;98749.83;104772;1275;75528;-26
2022/05/15 05:15:45;;;;;;;15.10;4.40;;;;;;;12.93;65.55;98750.02;104711;1274;74480;-26
2022/05/15 05:18:17;;;;;;;8.00;3.80;;;;;;;12.93;65.63;98748.45;104740;1276;61119;-26
2022/05/15 05:20:46;;;;;;;9.80;3.90;;;;;;;12.88;65.48;98750.55;104590;1275;61151;-26
2022/05/15 05:23:15;;;;;;;9.60;3.70;;;;;;;12.74;64.73;98752.23;104720;1274;74821;-26
2022/05/15 05:25:44;;;;;;;7.90;3.40;;;;;;;12.78;65.45;98759.70;104769;1275;76053;-26
2022/05/15 05:28:15;;;;;;;8.70;4.00;;;;;;;12.90;65.35;98758.29;104785;1274;74512;-26
2022/05/15 05:30:43;;;;;;;8.00;3.80;;;;;;;12.77;64.62;98756.98;104576;1274;61080;-26
2022/05/15 05:33:12;;;;;;;8.00;3.30;;;;;;;12.61;64.71;98764.86;104742;1277;62235;-25
2022/05/15 05:35:41;;;;;;;7.50;3.30;;;;;;;12.88;65.86;98769.48;104757;1277;74515;-27
2022/05/15 05:38:11;;;;;;;7.60;2.70;;;;;;;13.19;65.02;98770.75;104743;1275;74963;-26
2022/05/15 05:40:39;;;;;;;5.30;3.10;;;;;;;13.68;62.54;98765.86;104822;1275;74525;-26
2022/05/15 05:43:09;;;;;;;10.60;3.90;;;;;;;13.79;62.04;98763.04;104736;1275;61965;-26
2022/05/15 05:45:38;;;;;;;9.70;3.80;;;;;;;14.05;61.54;98766.05;104746;1276;61901;-26
2022/05/15 05:48:07;;;;;;;7.90;3.70;;;;;;;14.21;60.91;98757.11;104652;1274;74764;-26
2022/05/15 05:50:37;;;;;;;11.20;3.70;;;;;;;14.23;60.04;98756.04;104725;1274;75809;-26
2022/05/15 05:53:06;;;;;;;8.80;3.20;;;;;;;13.98;60.11;98760.84;104645;1274;74217;-26
2022/05/15 05:55:35;;;;;;;8.60;3.60;;;;;;;14.00;61.16;98766.39;104879;1274;61158;-26
2022/05/15 05:58:04;;;;;;;7.70;2.70;;;;;;;14.09;59.97;98760.58;104930;1274;61071;-26
2022/05/15 06:00:37;;;;;;;6.80;3.10;;;;;;;14.02;60.55;98763.16;105030;1271;73569;-26
2022/05/15 06:05:56;;;;;;;8.90;3.00;;;;;;;14.12;60.31;98762.07;104838;1271;74460;-25
2022/05/15 06:08:28;;;;;;;8.50;3.00;;;;;;;14.18;60.07;98763.57;105106;1271;61141;-26
2022/05/15 06:10:57;;;;;;;8.30;3.60;;;;;;;14.11;60.08;98766.98;105143;1271;62250;-26
2022/05/15 06:13:26;;;;;;;7.80;3.30;;;;;;;13.99;60.10;98765.42;104722;1271;75630;-26
2022/05/15 06:15:55;;;;;;;9.50;3.80;;;;;;;13.77;60.74;98771.10;104772;1274;75992;-26
2022/05/15 06:18:24;;;;;;;9.30;3.70;;;;;;;13.86;61.00;98770.03;105050;1273;74374;-26
2022/05/15 06:20:53;;;;;;;6.50;3.20;;;;;;;13.95;60.87;98767.77;105105;1271;62255;-26
2022/05/15 06:23:23;;;;;;;7.80;3.30;;;;;;;14.12;61.44;98772.64;105144;1271;61796;-26
2022/05/15 06:25:52;;;;;;;17.10;3.60;;;;;;;14.14;61.10;98770.33;105058;1274;74541;-26
2022/05/15 06:28:21;;;;;;;8.10;2.80;;;;;;;14.11;60.60;98771.66;104941;1273;76032;-26
2022/05/15 06:30:50;;;;;;;9.00;3.00;;;;;;;13.90;60.27;98768.77;104951;1271;74447;-26
2022/05/15 06:33:19;;;;;;;7.30;3.00;;;;;;;14.12;61.64;98767.10;105141;1271;61157;-25
2022/05/15 06:35:48;;;;;;;10.50;2.70;;;;;;;14.46;58.92;98762.98;104934;1271;61051;-26
2022/05/15 06:38:17;;;;;;;8.20;2.70;;;;;;;14.66;60.75;98768.16;104894;1271;75632;-26
2022/05/15 06:40:46;;;;;;;7.80;2.90;;;;;;;14.82;58.75;98760.48;105039;1271;75904;-26
2022/05/15 06:43:14;;;;;;;8.90;3.50;;;;;;;14.94;59.21;98770.16;105158;1271;74657;-26
2022/05/15 06:45:44;;;;;;;10.40;2.20;;;;;;;15.00;59.22;98767.27;104738;1271;61601;-25
2022/05/15 06:48:13;;;;;;;5.60;2.50;;;;;;;14.93;55.52;98763.23;104917;1273;61134;-26
2022/05/15 06:50:44;;;;;;;5.90;2.40;;;;;;;14.98;55.74;98757.48;105120;1273;75905;-26
2022/05/15 06:53:13;;;;;;;6.50;2.60;;;;;;;15.03;56.55;98754.21;105057;1273;75033;-26
2022/05/15 06:57:28;;;;;;;9.00;2.60;;;;;;;15.25;55.01;98759.20;105092;1272;74192;-26
2022/05/15 06:58:33;;;;;;;7.60;2.20;;;;;;;15.33;54.53;98761.14;105119;1271;61157;-26
2022/05/15 07:01:02;;;;;;;5.60;2.30;;;;;;;15.53;54.65;98754.20;105020;1272;61133;-26
2022/05/15 07:03:32;;;;;;;6.70;1.90;;;;;;;15.52;53.75;98762.13;104990;1271;75341;-26
2022/05/15 07:06:02;;;;;;;8.30;2.20;;;;;;;15.55;54.12;98759.18;105124;1271;75898;-26
2022/05/15 07:08:31;;;;;;;5.70;2.10;;;;;;;15.67;54.40;98756.77;104991;1273;73413;-26
2022/05/15 07:10:59;;;;;;;7.50;2.30;;;;;;;15.71;55.10;98761.73;104933;1271;62068;-26
2022/05/15 07:13:29;;;;;;;5.20;1.90;;;;;;;15.37;53.81;98763.08;104953;1271;63796;-26
2022/05/15 07:15:59;;;;;;;6.30;2.10;;;;;;;15.77;53.77;98756.38;104947;1271;75368;-25
2022/05/15 07:18:28;;;;;;;5.40;1.70;;;;;;;15.89;53.16;98748.27;104601;1276;76028;-26
2022/05/15 07:20:57;;;;;;;6.50;1.60;;;;;;;15.50;50.59;98740.48;104650;1272;74427;-25
2022/05/15 07:23:26;;;;;;;10.00;2.40;;;;;;;15.31;50.51;98736.45;104789;1271;61654;-25
2022/05/15 07:25:59;;;;;;;6.50;2.60;;;;;;;15.36;52.29;98744.42;104807;1271;61606;-25
2022/05/15 07:28:28;;;;;;;6.10;2.00;;;;;;;15.73;52.47;98757.45;105113;1273;75462;-25
2022/05/15 07:30:57;;;;;;;6.80;2.00;;;;;;;15.92;51.09;98746.40;104879;1271;76044;-25
2022/05/15 07:33:27;;;;;;;2.80;1.50;;;;;;;15.93;49.66;98737.73;104802;1271;74444;-25
2022/05/15 07:35:56;;;;;;;13.30;2.40;;;;;;;15.92;49.58;98735.54;104853;1271;61241;-25
2022/05/15 07:38:25;;;;;;;8.70;2.00;;;;;;;15.85;50.12;98736.13;104795;1271;61576;-24
2022/05/15 07:40:54;;;;;;;6.40;1.60;;;;;;;15.65;49.14;98724.54;104968;1271;75523;-25
2022/05/15 07:43:23;;;;;;;6.20;1.60;;;;;;;15.76;49.08;98727.08;104808;1271;75118;-25
2022/05/15 07:45:52;;;;;;;6.10;1.40;;;;;;;15.67;48.91;98731.00;104780;1271;74413;-25
2022/05/15 07:48:21;;;;;;;3.50;1.70;;;;;;;15.27;50.09;98743.98;104798;1271;61152;-25
2022/05/15 07:50:52;;;;;;;8.00;1.60;;;;;;;15.21;49.41;98741.66;104811;1271;61068;-25
2022/05/15 07:53:21;;;;;;;3.70;1.60;;;;;;;15.25;49.60;98740.48;104633;1273;74691;-25
2022/05/15 07:55:50;;;;;;;11.10;2.60;;;;;;;15.39;50.91;98750.06;104839;1273;75960;-25
2022/05/15 07:58:19;;;;;;;4.80;1.20;;;;;;;15.24;49.04;98734.17;104800;1272;74264;-25
2022/05/15 08:00:48;;;;;;;4.00;1.40;;;;;;;15.22;50.14;98747.33;105074;1271;61305;-25
2022/05/15 08:03:17;;;;;;;3.40;1.20;;;;;;;15.34;49.18;98736.94;105130;1270;61994;-25
2022/05/15 08:08:35;;;;;;;4.30;1.50;;;;;;;15.61;50.35;98739.88;104903;1271;75907;-24
2022/05/15 08:11:04;;;;;;;3.20;1.40;;;;;;;15.44;50.40;98756.36;104862;1271;74477;-25
2022/05/15 08:13:34;;;;;;;3.20;1.30;;;;;;;15.29;50.20;98735.33;105025;1271;61146;-25
2022/05/15 08:16:04;;;;;;;4.00;1.40;;;;;;;15.06;50.36;98738.63;104884;1271;61769;-25
2022/05/15 08:24:08;;;;;;;7.40;2.20;;;;;;;15.36;50.04;98740.23;105098;1271;73438;-25
2022/05/15 08:26:37;;;;;;;6.00;1.60;;;;;;;15.53;49.95;98734.08;105090;1271;61233;-25
2022/05/15 08:29:08;;;;;;;6.90;1.90;;;;;;;15.82;49.44;98737.24;105148;1271;62087;-25
2022/05/15 08:31:39;;;;;;;6.80;1.40;;;;;;;15.50;49.61;98728.64;105165;1271;75510;-25
2022/05/15 08:34:08;;;;;;;8.30;1.70;;;;;;;15.13;49.70;98735.27;105111;1274;75973;-25
2022/05/15 08:36:41;;;;;;;3.30;1.50;;;;;;;14.98;51.46;98743.30;105162;1271;74547;-25
2022/05/15 08:39:11;;;;;;;6.40;1.90;;;;;;;15.29;52.47;98739.71;105106;1272;61155;-25
2022/05/15 08:42:14;;;;;;;8.00;1.60;;;;;;;15.86;50.82;98734.29;104968;1272;61828;-25
2022/05/15 08:44:44;;;;;;;3.30;1.40;;;;;;;15.94;48.71;98738.80;104845;1271;74272;-25
2022/05/15 08:47:18;;;;;;;7.80;2.00;;;;;;;15.86;49.47;98745.05;104781;1271;74999;-25
2022/05/15 08:49:59;;;;;;;1.30;0.80;;;;;;;15.81;49.24;98740.34;105044;1271;74412;-25
2022/05/15 08:52:53;;;;;;;2.30;1.00;;;;;;;15.60;46.52;98738.08;104785;1271;62018;-25
2022/05/15 08:55:24;;;;;;;7.90;1.90;;;;;;;15.24;48.12;98734.02;104863;1271;61789;-25
2022/05/15 08:57:57;;;;;;;7.00;1.90;;;;;;;15.42;48.66;98744.28;104757;1271;75359;-26
2022/05/15 09:00:35;;;;;;;9.00;2.00;;;;;;;15.65;49.03;98742.81;104868;1271;75864;-26
2022/05/15 09:03:18;;;;;;;10.00;2.00;;;;;;;15.64;48.13;98742.98;105081;1271;74136;-26
2022/05/15 09:05:59;;;;;;;5.80;1.80;;;;;;;15.32;49.05;98732.45;105118;1271;62182;-27
2022/05/15 09:08:51;;;;;;;4.80;1.50;;;;;;;15.07;49.80;98749.60;105116;1273;61801;-26
2022/05/15 09:11:31;;;;;;;7.80;1.50;;;;;;;14.91;50.07;98751.56;105068;1271;74354;-26
2022/05/15 09:14:07;;;;;;;6.40;1.70;;;;;;;15.50;50.30;98741.92;104873;1271;75877;-25
2022/05/15 09:16:37;;;;;;;4.40;1.40;;;;;;;15.91;48.65;98742.08;104912;1271;74086;-27
2022/05/15 09:19:08;;;;;;;6.40;1.60;;;;;;;16.66;47.14;98736.23;104678;1271;61083;-26
2022/05/15 09:21:38;;;;;;;6.00;1.40;;;;;;;16.98;46.06;98730.92;105026;1271;61885;-27
2022/05/15 09:24:11;;;;;;;4.20;1.40;;;;;;;16.96;43.75;98711.65;104924;1271;76093;-23
2022/05/15 09:26:46;;;;;;;3.10;1.20;;;;;;;16.50;43.73;98724.34;104511;1272;76010;-24
2022/05/15 09:29:26;;;;;;;5.80;1.90;;;;;;;15.99;45.25;98732.42;104817;1273;73207;-26
2022/05/15 09:31:54;;;;;;;3.60;1.60;;;;;;;15.94;46.95;98736.68;104816;1271;61252;-25
2022/05/15 09:34:27;;;;;;;4.10;1.80;;;;;;;16.38;45.84;98728.80;104861;1271;61866;-25
2022/05/15 09:39:52;;;;;;;5.70;2.00;;;;;;;16.83;44.71;98735.55;104808;1271;75956;-24
2022/05/15 09:45:25;;;;;;;5.60;1.70;;;;;;;16.05;45.17;98743.77;105094;1271;62056;-26
2022/05/15 09:47:54;;;;;;;6.80;1.70;;;;;;;16.91;47.34;98748.86;105014;1273;61659;-25
2022/05/15 09:50:37;;;;;;;7.20;1.70;;;;;;;16.71;45.63;98748.39;104841;1271;75542;-25
2022/05/15 09:53:13;;;;;;;7.20;1.60;;;;;;;16.14;45.97;98753.59;104607;1271;76136;-25
2022/05/15 09:55:42;;;;;;;7.40;1.70;;;;;;;15.77;46.80;98748.83;104760;1271;72386;-25
2022/05/15 09:58:18;;;;;;;7.70;2.30;;;;;;;15.84;46.16;98745.16;104637;1273;61145;-26
2022/05/15 10:00:48;;;;;;;4.50;1.60;;;;;;;16.13;46.76;98747.92;104683;1272;61969;-25
2022/05/15 10:03:23;;;;;;;6.50;1.90;;;;;;;16.49;45.09;98735.66;104799;1273;75310;-25
2022/05/15 10:06:01;;;;;;;4.50;1.50;;;;;;;16.75;45.08;98741.35;104696;1271;75065;-25
2022/05/15 10:08:32;;;;;;;7.30;1.80;;;;;;;17.04;43.75;98740.93;104669;1271;74446;-25
2022/05/15 10:11:22;;;;;;;6.80;1.70;;;;;;;16.50;42.98;98735.71;104673;1271;61600;-25
2022/05/15 10:13:53;;;;;;;6.00;2.00;;;;;;;16.88;43.77;98736.75;104806;1271;61246;-25
2022/05/15 10:16:27;;;;;;;6.50;1.70;;;;;;;17.01;42.89;98728.52;104678;1271;74592;-25
2022/05/15 10:18:58;;;;;;;4.10;1.50;;;;;;;17.08;42.20;98735.56;104736;1271;76005;-25
2022/05/15 10:21:43;;;;;;;4.40;1.30;;;;;;;17.41;42.09;98734.45;104700;1271;74516;-25
2022/05/15 10:24:15;;;;;;;4.70;1.40;;;;;;;17.55;41.04;98723.39;104648;1271;61146;-25
2022/05/15 10:27:22;;;;;;;4.50;1.50;;;;;;;17.60;41.99;98749.79;104443;1271;61141;-25
2022/05/15 10:30:04;;;;;;;4.20;1.60;;;;;;;17.69;41.84;98744.05;105122;1270;75593;-25
2022/05/15 10:32:38;;;;;;;3.70;1.60;;;;;;;17.20;41.84;98726.63;105142;1271;76052;-26
2022/05/15 10:35:09;;;;;;;5.40;1.60;;;;;;;16.55;42.74;98746.21;105083;1271;73134;-25
2022/05/15 10:37:38;;;;;;;5.50;1.40;;;;;;;16.40;42.41;98751.37;104784;1271;61188;-25
2022/05/15 10:40:08;;;;;;;5.30;1.70;;;;;;;16.79;42.01;98751.09;105001;1271;63930;-25
2022/05/15 10:42:47;;;;;;;5.70;1.30;;;;;;;17.28;41.34;98732.26;104792;1271;74139;-24
2022/05/15 10:45:53;;;;;;;4.90;1.60;;;;;;;17.37;41.08;98738.30;104774;1271;75954;-24
2022/05/15 10:48:26;;;;;;;3.50;1.20;;;;;;;17.32;40.67;98747.29;104599;1273;74421;-25
2022/05/15 10:51:15;;;;;;;5.60;1.90;;;;;;;16.63;41.09;98745.25;104774;1271;61148;-24
2022/05/15 10:57:25;;;;;;;2.50;1.00;;;;;;;17.34;39.16;98726.12;105027;1271;75857;-25
2022/05/15 11:00:24;;;;;;;1.00;0.60;;;;;;;17.53;39.60;98729.06;104892;1271;74980;-24
2022/05/15 11:03:22;;;;;;;2.60;1.30;;;;;;;17.77;39.14;98741.73;104783;1272;73046;-25
2022/05/15 11:06:26;;;;;;;8.90;1.80;;;;;;;17.50;39.86;98760.23;104756;1271;61207;-24
2022/05/15 11:08:54;;;;;;;4.50;1.10;;;;;;;17.74;38.74;98750.81;104759;1271;61902;-24
2022/05/15 11:11:38;;;;;;;5.80;1.20;;;;;;;17.82;38.28;98749.69;104831;1271;75375;-24
2022/05/15 11:14:08;;;;;;;2.80;1.20;;;;;;;17.35;39.11;98740.59;104768;1271;75964;-24
2022/05/15 11:17:00;;;;;;;1.30;0.90;;;;;;;17.61;38.91;98749.20;104770;1271;74453;-24
2022/05/15 11:19:42;;;;;;;1.90;1.00;;;;;;;17.90;38.97;98751.63;104780;1271;61038;-25
2022/05/15 11:22:49;;;;;;;6.10;1.50;;;;;;;17.12;39.00;98738.80;104784;1271;61803;-24
2022/05/15 11:25:29;;;;;;;6.30;1.30;;;;;;;16.65;39.38;98762.77;104832;1271;75133;-24
2022/05/15 11:28:07;;;;;;;4.40;1.30;;;;;;;17.10;39.23;98747.02;104739;1271;74862;-25
2022/05/15 11:30:43;;;;;;;5.00;1.40;;;;;;;17.66;38.89;98748.65;105006;1271;74444;-24
2022/05/15 11:33:31;;;;;;;4.80;1.50;;;;;;;17.62;37.69;98756.94;104805;1273;61137;-24
2022/05/15 11:36:12;;;;;;;5.00;1.20;;;;;;;17.55;37.98;98762.90;104791;1272;61070;-24
2022/05/15 11:38:58;;;;;;;5.20;1.40;;;;;;;17.11;38.28;98751.02;104786;1272;75521;-24
2022/05/15 11:41:36;;;;;;;4.70;1.00;;;;;;;17.18;39.32;98741.10;104717;1272;74996;-24
2022/05/15 11:44:12;;;;;;;3.60;1.20;;;;;;;17.59;38.56;98740.46;104758;1271;74382;-24
2022/05/15 11:46:44;;;;;;;2.60;1.20;;;;;;;17.60;38.68;98751.44;104790;1272;62069;-24
2022/05/15 11:49:17;;;;;;;1.90;1.30;;;;;;;17.48;39.00;98752.10;104754;1272;62237;-26
2022/05/15 11:52:05;;;;;;;4.10;1.40;;;;;;;17.03;38.98;98737.67;105000;1271;73175;-24
2022/05/15 11:54:39;;;;;;;4.20;1.40;;;;;;;16.62;39.67;98761.18;105105;1271;74992;-24
2022/05/15 11:57:09;;;;;;;7.80;1.20;;;;;;;16.65;39.19;98751.94;104976;1271;74436;-25
2022/05/15 11:59:55;;;;;;;2.70;1.00;;;;;;;16.88;37.46;98746.54;104655;1271;61145;-24
2022/05/15 12:02:29;;;;;;;4.30;1.20;;;;;;;17.27;38.44;98750.33;104779;1271;61946;-24
2022/05/15 12:05:20;;;;;;;2.50;1.20;;;;;;;17.44;36.17;98750.62;104807;1271;74527;-24
2022/05/15 12:08:06;;;;;;;2.70;1.50;;;;;;;17.59;37.18;98754.64;104723;1271;75988;-24
2022/05/15 12:10:35;;;;;;;2.90;1.00;;;;;;;18.04;37.76;98761.23;104805;1271;74745;-24
2022/05/15 12:13:04;;;;;;;4.80;1.20;;;;;;;17.44;37.51;98743.23;104893;1273;61079;-24
2022/05/15 12:15:45;;;;;;;5.80;2.10;;;;;;;16.80;38.96;98754.42;105133;1271;62033;-24